Time;durP1;ratioP1;P1;durP2;ratioP2;P2;SDS_P1;SDS_P2;PMS_P1;PMS_P2;Temp;Humidity;BMP_temperature;BMP_pressure;BME280_temperature;BME280_humidity;BME280_pressure;Samples;Min_cycle;Max_cycle;Signal;HPM_P1;HPM_P2
2021/12/11 00:01:45;;;;;;;4.10;1.25;;;6.20;99.90;;;;;;4965776;28;20031;-75
2021/12/11 00:04:17;;;;;;;2.95;1.23;;;6.30;99.90;;;;;;4949719;29;20024;-75
2021/12/11 00:06:47;;;;;;;7.65;1.55;;;6.20;99.90;;;;;;4949953;29;20031;-75
2021/12/11 00:09:19;;;;;;;4.35;1.30;;;6.20;99.90;;;;;;4949706;29;20123;-75
2021/12/11 00:11:49;;;;;;;8.23;1.65;;;6.20;99.90;;;;;;4949894;29;20226;-75
2021/12/11 00:14:16;;;;;;;6.28;1.30;;;6.20;99.90;;;;;;4957688;28;20218;-76
2021/12/11 00:16:43;;;;;;;6.65;1.50;;;6.20;99.90;;;;;;4968713;28;20049;-75
2021/12/11 00:19:13;;;;;;;4.32;1.00;;;6.20;99.90;;;;;;4968776;28;20026;-75
2021/12/11 00:21:40;;;;;;;5.00;1.20;;;6.30;99.90;;;;;;4968696;28;20101;-75
2021/12/11 00:24:29;;;;;;;6.47;1.45;;;6.20;99.90;;;;;;4968700;28;20023;-74
2021/12/11 00:27:03;;;;;;;4.97;1.35;;;6.20;99.90;;;;;;4969194;28;20027;-75
2021/12/11 00:29:30;;;;;;;6.20;1.15;;;6.20;99.90;;;;;;5007541;28;20038;-75
2021/12/11 00:32:05;;;;;;;3.65;1.08;;;6.10;99.90;;;;;;5028578;28;20032;-75
2021/12/11 00:34:32;;;;;;;8.70;2.25;;;6.20;99.90;;;;;;5029975;28;20021;-75
2021/12/11 00:37:03;;;;;;;3.40;1.08;;;6.10;99.90;;;;;;5029810;28;20029;-75
2021/12/11 00:39:31;;;;;;;5.85;1.90;;;6.20;99.90;;;;;;5011902;28;20511;-75
2021/12/11 00:42:00;;;;;;;4.65;1.45;;;6.20;99.90;;;;;;5011222;28;20030;-75
2021/12/11 00:44:36;;;;;;;7.07;1.35;;;6.20;99.90;;;;;;5030676;28;20136;-75
2021/12/11 00:47:07;;;;;;;5.13;1.60;;;6.10;99.90;;;;;;5030029;28;20029;-75
2021/12/11 00:49:33;;;;;;;5.70;1.90;;;6.10;99.90;;;;;;5029558;28;20026;-75
2021/12/11 00:52:00;;;;;;;6.10;1.52;;;6.20;99.90;;;;;;5029262;28;20047;-75
2021/12/11 00:54:25;;;;;;;10.88;1.60;;;6.20;99.90;;;;;;5029698;28;20029;-75
2021/12/11 00:56:51;;;;;;;5.78;1.05;;;6.20;99.90;;;;;;5010562;28;20223;-75
2021/12/11 00:59:20;;;;;;;7.72;1.67;;;6.10;99.90;;;;;;5009679;28;20026;-75
2021/12/11 01:02:03;;;;;;;8.40;1.65;;;6.20;99.90;;;;;;5026716;28;20026;-75
2021/12/11 01:04:40;;;;;;;4.78;1.20;;;6.20;99.90;;;;;;5011709;28;20029;-75
2021/12/11 01:07:17;;;;;;;6.57;2.03;;;6.20;99.90;;;;;;5029139;28;20105;-75
2021/12/11 01:09:52;;;;;;;4.40;1.50;;;6.20;99.90;;;;;;5029575;28;20032;-75
2021/12/11 01:12:28;;;;;;;6.85;1.40;;;6.20;99.90;;;;;;5029366;28;20085;-75
2021/12/11 01:15:13;;;;;;;6.72;1.60;;;6.20;99.90;;;;;;5029525;28;20109;-75
2021/12/11 01:17:57;;;;;;;6.13;1.25;;;6.20;99.90;;;;;;5009031;28;20029;-75
2021/12/11 01:20:37;;;;;;;5.97;1.20;;;6.20;99.90;;;;;;5028922;28;20108;-75
2021/12/11 01:23:15;;;;;;;7.93;1.55;;;6.20;99.90;;;;;;5028939;28;20091;-75
2021/12/11 01:25:42;;;;;;;4.53;0.95;;;6.20;99.90;;;;;;5011318;28;20092;-75
2021/12/11 01:28:08;;;;;;;3.80;1.15;;;6.20;99.90;;;;;;5028914;28;20056;-75
2021/12/11 01:30:39;;;;;;;4.93;1.55;;;6.20;99.90;;;;;;5029295;28;20029;-75
2021/12/11 01:33:07;;;;;;;;;;;6.10;99.90;;;;;;5029516;28;20577;-75
2021/12/11 01:35:33;;;;;;;5.28;1.15;;;6.10;99.90;;;;;;5012581;28;20433;-75
2021/12/11 01:38:13;;;;;;;7.93;1.60;;;6.20;99.90;;;;;;5007782;28;20117;-75
2021/12/11 01:40:39;;;;;;;6.28;2.00;;;6.10;99.90;;;;;;5025208;28;20060;-75
2021/12/11 01:43:08;;;;;;;6.75;2.00;;;6.10;99.90;;;;;;5028599;28;20044;-75
2021/12/11 01:45:35;;;;;;;5.10;1.42;;;6.20;99.90;;;;;;5028371;28;20050;-75
2021/12/11 01:48:02;;;;;;;6.25;1.92;;;6.20;99.90;;;;;;5028416;28;20040;-75
2021/12/11 01:50:36;;;;;;;6.10;1.15;;;6.10;99.90;;;;;;5030094;28;20021;-75
2021/12/11 01:53:09;;;;;;;6.03;1.00;;;6.10;99.90;;;;;;5007003;28;20029;-75
2021/12/11 01:55:54;;;;;;;4.90;1.30;;;6.20;99.90;;;;;;5023067;28;20045;-75
2021/12/11 01:58:40;;;;;;;7.53;1.30;;;6.10;99.90;;;;;;5028303;28;20075;-75
2021/12/11 02:01:15;;;;;;;6.15;1.52;;;6.20;99.90;;;;;;5026254;28;20029;-75
2021/12/11 02:03:41;;;;;;;7.00;1.60;;;6.10;99.90;;;;;;5027502;28;20025;-77
2021/12/11 02:06:08;;;;;;;6.88;1.33;;;6.10;99.90;;;;;;5028081;28;20047;-78
2021/12/11 02:08:37;;;;;;;10.40;2.38;;;6.10;99.90;;;;;;5029393;28;20040;-74
2021/12/11 02:11:18;;;;;;;5.38;1.50;;;6.10;99.90;;;;;;5028328;28;20036;-75
2021/12/11 02:13:57;;;;;;;4.82;1.50;;;6.10;99.90;;;;;;5010481;28;20044;-75
2021/12/11 02:16:38;;;;;;;5.50;1.23;;;6.10;99.90;;;;;;5027728;28;20025;-77
2021/12/11 02:19:13;;;;;;;4.13;0.80;;;6.10;99.90;;;;;;5025158;28;20026;-77
2021/12/11 02:21:57;;;;;;;12.07;1.48;;;6.10;99.90;;;;;;5006971;28;20030;-75
2021/12/11 02:24:25;;;;;;;5.57;1.13;;;6.10;99.90;;;;;;5010302;28;20028;-74
2021/12/11 02:26:54;;;;;;;6.65;1.67;;;6.10;99.90;;;;;;5028104;28;20033;-75
2021/12/11 02:29:32;;;;;;;5.93;1.30;;;6.10;99.90;;;;;;5008366;28;20523;-74
2021/12/11 02:32:06;;;;;;;7.53;2.58;;;6.10;99.90;;;;;;5027027;28;20532;-74
2021/12/11 02:34:49;;;;;;;5.07;1.50;;;6.10;99.90;;;;;;5027660;28;20075;-74
2021/12/11 02:37:56;;;;;;;3.35;1.30;;;6.10;99.90;;;;;;5027764;28;20032;-74
2021/12/11 02:40:35;;;;;;;4.00;1.33;;;6.10;99.90;;;;;;5006305;28;20045;-74
2021/12/11 02:43:17;;;;;;;7.35;1.52;;;6.10;99.90;;;;;;5027696;28;20026;-74
2021/12/11 02:45:56;;;;;;;13.52;1.77;;;6.10;99.90;;;;;;5027648;28;20053;-74
2021/12/11 02:48:29;;;;;;;9.00;2.03;;;6.10;99.90;;;;;;5027906;28;20034;-74
2021/12/11 02:51:10;;;;;;;5.90;1.50;;;6.10;99.90;;;;;;5028088;28;20025;-74
2021/12/11 02:53:38;;;;;;;8.27;1.42;;;6.10;99.90;;;;;;5028919;28;20033;-74
2021/12/11 02:56:15;;;;;;;4.70;1.27;;;6.10;99.90;;;;;;5006513;28;20034;-75
2021/12/11 02:58:45;;;;;;;7.97;1.95;;;6.10;99.90;;;;;;5024074;28;20021;-74
2021/12/11 03:01:24;;;;;;;9.90;1.50;;;6.10;99.90;;;;;;5027433;28;20030;-74
2021/12/11 03:03:57;;;;;;;5.40;1.17;;;6.10;99.90;;;;;;5027634;28;20041;-75
2021/12/11 03:06:26;;;;;;;7.30;1.58;;;6.10;99.90;;;;;;5027689;28;20029;-74
2021/12/11 03:08:56;;;;;;;9.25;1.40;;;6.10;99.90;;;;;;5007880;28;20037;-74
2021/12/11 03:11:26;;;;;;;6.10;1.92;;;6.10;99.90;;;;;;5028992;28;20044;-74
2021/12/11 03:13:55;;;;;;;8.65;1.67;;;6.10;99.90;;;;;;5007237;28;20026;-75
2021/12/11 03:16:24;;;;;;;2.47;1.17;;;6.10;99.90;;;;;;5024912;28;20033;-75
2021/12/11 03:18:50;;;;;;;8.02;1.60;;;6.00;99.90;;;;;;5010685;28;20265;-75
2021/12/11 03:21:16;;;;;;;4.07;1.33;;;6.00;99.90;;;;;;5031441;28;20026;-75
2021/12/11 03:23:43;;;;;;;4.30;1.85;;;6.10;99.90;;;;;;5014355;28;20022;-75
2021/12/11 03:26:09;;;;;;;8.50;1.90;;;6.00;99.90;;;;;;5031945;28;20025;-75
2021/12/11 03:28:35;;;;;;;4.22;1.60;;;6.00;99.90;;;;;;5031099;28;20021;-75
2021/12/11 03:31:02;;;;;;;7.88;1.85;;;6.10;99.90;;;;;;5031087;28;20033;-75
2021/12/11 03:33:39;;;;;;;3.92;1.17;;;6.00;99.90;;;;;;5012994;28;20022;-75
2021/12/11 03:36:07;;;;;;;7.40;1.70;;;6.00;99.90;;;;;;5031082;28;20562;-75
2021/12/11 03:38:34;;;;;;;10.13;2.45;;;6.00;99.90;;;;;;5010859;28;20041;-75
2021/12/11 03:41:02;;;;;;;5.38;1.70;;;6.00;99.90;;;;;;5011949;28;20553;-75
2021/12/11 03:43:31;;;;;;;6.57;2.00;;;6.00;99.90;;;;;;5030881;28;20021;-75
2021/12/11 03:46:01;;;;;;;6.80;2.10;;;6.00;99.90;;;;;;5011458;28;20046;-75
2021/12/11 03:48:30;;;;;;;6.35;1.80;;;6.10;99.90;;;;;;5031287;28;20037;-75
2021/12/11 03:50:59;;;;;;;8.15;2.05;;;6.00;99.90;;;;;;5030246;28;20026;-75
2021/12/11 03:53:26;;;;;;;3.72;1.33;;;6.00;99.90;;;;;;5014005;28;20056;-75
2021/12/11 03:55:59;;;;;;;6.97;1.70;;;6.00;99.90;;;;;;5030791;28;20029;-75
2021/12/11 03:58:25;;;;;;;3.40;1.27;;;6.00;99.90;;;;;;5009415;28;20030;-75
2021/12/11 04:01:23;;;;;;;8.73;2.15;;;6.00;99.90;;;;;;5020277;28;20095;-75
2021/12/11 04:03:50;;;;;;;6.53;1.88;;;6.00;99.90;;;;;;5030377;28;20156;-75
2021/12/11 04:06:17;;;;;;;8.10;1.50;;;6.00;99.90;;;;;;5030801;28;20037;-75
2021/12/11 04:08:44;;;;;;;5.30;1.95;;;6.00;99.90;;;;;;5013258;28;20100;-75
2021/12/11 04:11:13;;;;;;;4.55;1.48;;;6.10;99.90;;;;;;5031853;28;20107;-75
2021/12/11 04:13:39;;;;;;;10.40;1.73;;;6.10;99.90;;;;;;5030662;28;20049;-74
2021/12/11 04:16:09;;;;;;;10.38;2.63;;;6.10;99.90;;;;;;5030348;28;20068;-74
2021/12/11 04:18:35;;;;;;;6.35;1.60;;;6.10;99.90;;;;;;5030604;28;20174;-75
2021/12/11 04:21:00;;;;;;;10.15;2.03;;;6.10;99.90;;;;;;5012275;28;20036;-75
2021/12/11 04:23:26;;;;;;;8.93;1.98;;;6.10;99.90;;;;;;5031731;28;20406;-74
2021/12/11 04:25:55;;;;;;;7.20;1.85;;;6.10;99.90;;;;;;5029515;28;20040;-75
2021/12/11 04:28:22;;;;;;;7.00;1.58;;;6.10;99.90;;;;;;5023825;28;20029;-75
2021/12/11 04:30:51;;;;;;;8.05;1.90;;;6.10;99.90;;;;;;5029408;28;20030;-74
2021/12/11 04:33:18;;;;;;;5.80;1.70;;;6.00;99.90;;;;;;5029631;28;20033;-75
2021/12/11 04:35:44;;;;;;;9.50;2.28;;;6.00;99.90;;;;;;5030105;28;20038;-75
2021/12/11 04:38:13;;;;;;;4.32;1.67;;;6.00;99.90;;;;;;5030272;28;20026;-75
2021/12/11 04:40:44;;;;;;;13.02;2.55;;;6.00;99.90;;;;;;5029064;28;20490;-75
2021/12/11 04:43:17;;;;;;;7.35;2.00;;;6.00;99.90;;;;;;5029493;28;20038;-75
2021/12/11 04:45:48;;;;;;;9.88;2.35;;;6.00;99.90;;;;;;5011399;28;20037;-75
2021/12/11 04:49:09;;;;;;;8.45;2.03;;;5.90;99.90;;;;;;5029514;28;20029;-75
2021/12/11 04:57:02;;;;;;;6.32;1.95;;;5.90;99.90;;;;;;5030709;28;20066;-74
2021/12/11 05:10:27;;;;;;;8.63;2.83;;;5.70;99.90;;;;;;5029085;28;20029;-74
2021/12/11 05:12:56;;;;;;;7.78;2.75;;;5.80;99.90;;;;;;5029255;28;20112;-74
2021/12/11 05:15:43;;;;;;;6.28;1.77;;;5.70;99.90;;;;;;5029171;28;20495;-74
2021/12/11 05:18:17;;;;;;;6.82;2.00;;;5.70;99.90;;;;;;5011383;28;20036;-74
2021/12/11 05:20:50;;;;;;;14.02;2.13;;;5.60;99.90;;;;;;5029266;28;20523;-74
2021/12/11 05:23:19;;;;;;;13.90;3.45;;;5.60;99.90;;;;;;5030127;28;20029;-74
2021/12/11 05:25:45;;;;;;;8.50;2.95;;;5.60;99.90;;;;;;5028786;28;20028;-74
2021/12/11 05:28:11;;;;;;;13.00;3.03;;;5.60;99.90;;;;;;5029025;28;20030;-74
2021/12/11 05:30:41;;;;;;;10.05;2.58;;;5.70;99.90;;;;;;5011164;28;20449;-74
2021/12/11 05:33:07;;;;;;;9.23;2.08;;;5.70;99.90;;;;;;5029091;28;20033;-74
2021/12/11 05:35:36;;;;;;;8.10;2.55;;;5.60;99.90;;;;;;5030071;28;20411;-75
2021/12/11 05:38:05;;;;;;;11.15;3.22;;;5.60;99.90;;;;;;5027018;28;20040;-74
2021/12/11 05:40:33;;;;;;;9.40;2.30;;;5.60;99.90;;;;;;5028833;28;20032;-74
2021/12/11 05:42:59;;;;;;;10.40;2.65;;;5.60;99.90;;;;;;5028377;28;20499;-74
2021/12/11 05:45:25;;;;;;;8.35;2.55;;;5.60;99.90;;;;;;5028691;28;20204;-74
2021/12/11 05:47:52;;;;;;;8.93;2.55;;;5.50;99.90;;;;;;5028830;28;20029;-74
2021/12/11 05:50:25;;;;;;;4.82;1.77;;;5.40;99.90;;;;;;5030103;28;20063;-74
2021/12/11 05:52:52;;;;;;;6.85;1.58;;;5.40;99.90;;;;;;5028305;28;20033;-74
2021/12/11 05:55:20;;;;;;;5.15;1.23;;;5.40;99.90;;;;;;5028456;28;20127;-74
2021/12/11 05:57:54;;;;;;;6.97;1.58;;;5.40;99.90;;;;;;5028355;28;20041;-74
2021/12/11 06:00:35;;;;;;;6.97;1.60;;;5.40;99.90;;;;;;5028583;28;20118;-74
2021/12/11 06:03:03;;;;;;;5.70;1.42;;;5.30;99.90;;;;;;5028007;28;20022;-74
2021/12/11 06:05:29;;;;;;;5.07;1.95;;;5.30;99.90;;;;;;5029526;28;20033;-74
2021/12/11 06:07:56;;;;;;;5.20;1.25;;;5.30;99.90;;;;;;5006916;28;20030;-74
2021/12/11 06:10:24;;;;;;;8.60;1.77;;;5.30;99.90;;;;;;5021879;28;20021;-74
2021/12/11 06:12:52;;;;;;;4.55;1.50;;;5.20;99.90;;;;;;5027925;28;20044;-74
2021/12/11 06:15:18;;;;;;;6.00;1.20;;;5.20;99.90;;;;;;5028269;28;20022;-74
2021/12/11 06:17:46;;;;;;;7.97;2.00;;;5.10;99.90;;;;;;5028612;28;20052;-75
2021/12/11 06:20:16;;;;;;;6.55;1.75;;;5.20;99.90;;;;;;5028710;28;20537;-74
2021/12/11 06:22:42;;;;;;;5.35;1.95;;;5.10;99.90;;;;;;5028058;28;20104;-74
2021/12/11 06:25:14;;;;;;;5.85;2.00;;;5.10;99.90;;;;;;5027868;28;20494;-74
2021/12/11 06:27:41;;;;;;;4.53;1.50;;;5.10;99.90;;;;;;5028029;28;20021;-74
2021/12/11 06:30:09;;;;;;;6.07;1.75;;;5.10;99.90;;;;;;5027667;28;20511;-74
2021/12/11 06:32:35;;;;;;;5.60;1.80;;;5.10;99.90;;;;;;5029172;28;20176;-74
2021/12/11 06:35:06;;;;;;;6.80;1.55;;;5.10;99.90;;;;;;5027885;28;20676;-74
2021/12/11 06:37:31;;;;;;;4.85;1.35;;;5.10;99.90;;;;;;5027257;28;20030;-74
2021/12/11 06:39:57;;;;;;;3.28;1.20;;;5.10;99.90;;;;;;5028051;28;20040;-74
2021/12/11 06:42:23;;;;;;;8.43;2.00;;;5.10;99.90;;;;;;5027788;28;20029;-74
2021/12/11 06:44:50;;;;;;;4.45;1.27;;;5.00;99.90;;;;;;5027836;28;20510;-74
2021/12/11 06:47:16;;;;;;;4.35;1.15;;;5.10;99.90;;;;;;5028988;28;20033;-75
2021/12/11 06:49:44;;;;;;;3.88;1.40;;;5.10;99.90;;;;;;5027268;28;20510;-74
2021/12/11 06:52:16;;;;;;;2.65;1.20;;;5.10;99.90;;;;;;5027595;28;20110;-75
2021/12/11 06:54:42;;;;;;;;;;;5.20;99.90;;;;;;5028050;28;20021;-75
2021/12/11 06:57:08;;;;;;;4.25;1.38;;;5.20;99.90;;;;;;5027481;28;19913;-74
2021/12/11 06:59:33;;;;;;;3.17;1.35;;;5.20;99.90;;;;;;5029033;28;20033;-75
2021/12/11 07:01:59;;;;;;;4.50;1.00;;;5.20;99.90;;;;;;5027269;28;20518;-74
2021/12/11 07:04:25;;;;;;;2.97;1.05;;;5.10;99.90;;;;;;5027519;28;20410;-74
2021/12/11 07:06:53;;;;;;;4.97;1.23;;;5.20;99.90;;;;;;5026931;28;20068;-75
2021/12/11 07:09:22;;;;;;;7.13;1.45;;;5.20;99.90;;;;;;5027618;28;20075;-74
2021/12/11 07:11:50;;;;;;;3.30;1.40;;;5.10;99.90;;;;;;5027823;28;20025;-74
2021/12/11 07:14:20;;;;;;;3.63;1.20;;;5.00;99.90;;;;;;5027991;28;20095;-74
2021/12/11 07:16:46;;;;;;;7.15;1.48;;;4.90;99.90;;;;;;5027295;28;20494;-74
2021/12/11 07:19:14;;;;;;;3.10;1.30;;;4.80;99.90;;;;;;5027505;28;20499;-74
2021/12/11 07:21:40;;;;;;;5.72;1.38;;;4.70;99.90;;;;;;5027698;28;20499;-74
2021/12/11 07:24:08;;;;;;;6.70;1.70;;;4.60;99.90;;;;;;5027129;28;20032;-74
2021/12/11 07:26:35;;;;;;;2.75;1.80;;;4.70;99.90;;;;;;5007725;28;20022;-74
2021/12/11 07:29:06;;;;;;;3.08;1.63;;;4.70;99.90;;;;;;5026273;28;20075;-75
2021/12/11 07:31:33;;;;;;;5.72;1.52;;;4.70;99.90;;;;;;5026287;28;20022;-75
2021/12/11 07:34:00;;;;;;;5.95;1.80;;;4.60;99.90;;;;;;5026968;28;20029;-74
2021/12/11 07:36:27;;;;;;;5.68;1.80;;;4.60;99.90;;;;;;5009226;28;20594;-75
2021/12/11 07:38:53;;;;;;;5.55;2.30;;;4.60;99.90;;;;;;5027184;28;20026;-75
2021/12/11 07:41:20;;;;;;;6.25;2.20;;;4.60;99.90;;;;;;5007525;28;20022;-74
2021/12/11 07:43:48;;;;;;;4.65;1.63;;;4.60;99.90;;;;;;5024134;28;20522;-74
2021/12/11 07:46:18;;;;;;;3.92;2.35;;;4.70;99.90;;;;;;4997893;28;20585;-74
2021/12/11 07:48:45;;;;;;;9.20;2.53;;;4.70;99.90;;;;;;4996383;28;20022;-74
2021/12/11 07:51:12;;;;;;;12.85;2.88;;;4.80;99.90;;;;;;5007432;28;20033;-74
2021/12/11 07:53:37;;;;;;;5.78;2.63;;;4.80;99.90;;;;;;5007571;28;20080;-74
2021/12/11 07:56:03;;;;;;;8.20;2.00;;;4.90;99.90;;;;;;5007360;28;20026;-75
2021/12/11 07:58:32;;;;;;;6.80;3.05;;;4.90;99.90;;;;;;4995808;28;20122;-75
2021/12/11 08:00:59;;;;;;;6.05;2.28;;;5.00;99.90;;;;;;4998865;28;20026;-75
2021/12/11 08:03:25;;;;;;;9.02;2.35;;;5.10;99.90;;;;;;5010970;28;20041;-75
2021/12/11 08:05:52;;;;;;;7.40;2.45;;;5.20;99.90;;;;;;5011296;28;20514;-74
2021/12/11 08:08:21;;;;;;;7.97;2.92;;;5.20;99.90;;;;;;5011780;28;20029;-76
2021/12/11 08:10:49;;;;;;;7.43;2.75;;;5.20;99.90;;;;;;4997126;28;20059;-75
2021/12/11 08:13:15;;;;;;;9.80;2.97;;;5.20;99.90;;;;;;5003978;28;20030;-74
2021/12/11 08:15:42;;;;;;;8.60;2.75;;;5.20;99.90;;;;;;5010876;28;20072;-75
2021/12/11 08:18:10;;;;;;;9.65;3.25;;;5.30;99.90;;;;;;4993925;28;20030;-75
2021/12/11 08:20:37;;;;;;;9.15;3.72;;;5.40;99.90;;;;;;5012335;28;20030;-75
2021/12/11 08:23:04;;;;;;;13.10;3.50;;;5.60;99.90;;;;;;5010051;28;20034;-75
2021/12/11 08:25:31;;;;;;;6.00;2.67;;;5.60;99.90;;;;;;4998580;28;20332;-75
2021/12/11 08:27:58;;;;;;;8.65;2.63;;;5.60;99.90;;;;;;5000752;28;20064;-74
2021/12/11 08:30:27;;;;;;;9.35;3.63;;;5.70;99.90;;;;;;5010899;28;20030;-75
2021/12/11 08:32:53;;;;;;;6.47;2.85;;;5.90;99.90;;;;;;5009184;28;20026;-74
2021/12/11 08:35:19;;;;;;;8.13;3.33;;;5.80;99.90;;;;;;5011698;28;20079;-74
2021/12/11 08:37:49;;;;;;;9.48;2.78;;;5.90;99.90;;;;;;5010423;28;20061;-75
2021/12/11 08:40:23;;;;;;;9.07;2.83;;;6.20;99.90;;;;;;5010173;28;20030;-75
2021/12/11 08:42:50;;;;;;;8.48;2.58;;;6.30;99.90;;;;;;5004448;28;20026;-75
2021/12/11 08:45:23;;;;;;;6.47;2.00;;;6.30;99.90;;;;;;5016076;28;20080;-74
2021/12/11 08:47:53;;;;;;;6.85;2.47;;;6.30;99.90;;;;;;5030358;28;20022;-75
2021/12/11 08:50:21;;;;;;;4.40;2.05;;;6.60;99.90;;;;;;5009711;28;20026;-74
2021/12/11 08:52:51;;;;;;;11.45;3.15;;;6.90;99.90;;;;;;5009095;28;20522;-75
2021/12/11 08:55:29;;;;;;;9.38;2.95;;;7.20;99.90;;;;;;5024282;28;20025;-76
2021/12/11 08:57:56;;;;;;;11.02;2.70;;;7.10;99.90;;;;;;5011106;28;20503;-75
2021/12/11 09:00:30;;;;;;;11.27;2.58;;;7.90;99.90;;;;;;5028783;28;20080;-75
2021/12/11 09:03:02;;;;;;;11.43;2.35;;;9.30;99.90;;;;;;5029534;28;20018;-75
2021/12/11 09:05:45;;;;;;;6.18;1.83;;;10.70;99.90;;;;;;5029734;28;20078;-75
2021/12/11 09:08:26;;;;;;;10.90;2.13;;;10.20;99.90;;;;;;5011530;28;20272;-75
2021/12/11 09:11:13;;;;;;;4.03;2.05;;;10.60;99.90;;;;;;5004642;28;20049;-75
2021/12/11 09:13:57;;;;;;;7.00;2.00;;;9.20;99.90;;;;;;5024379;28;20084;-75
2021/12/11 09:16:32;;;;;;;8.45;2.13;;;8.00;99.90;;;;;;5028518;28;20033;-75
2021/12/11 09:19:09;;;;;;;6.57;1.85;;;7.70;99.90;;;;;;5008993;28;20141;-75
2021/12/11 09:21:55;;;;;;;9.07;1.98;;;7.70;99.90;;;;;;5028443;28;20020;-75
2021/12/11 09:24:26;;;;;;;8.68;2.58;;;7.70;99.90;;;;;;5028011;28;20051;-75
2021/12/11 09:27:06;;;;;;;7.07;2.15;;;7.80;99.90;;;;;;5028690;28;20052;-75
2021/12/11 09:29:38;;;;;;;14.55;2.00;;;7.80;99.90;;;;;;5029752;28;20108;-75
2021/12/11 09:32:06;;;;;;;;;;;7.80;99.90;;;;;;5028647;28;20514;-75
2021/12/11 09:34:55;;;;;;;8.05;2.35;;;7.80;99.90;;;;;;5028315;28;20027;-75
2021/12/11 09:37:21;;;;;;;7.55;2.03;;;7.90;99.90;;;;;;5028118;28;20049;-75
2021/12/11 09:39:53;;;;;;;6.13;1.77;;;8.00;99.90;;;;;;5028630;28;20061;-75
2021/12/11 09:42:18;;;;;;;4.97;1.65;;;8.00;99.90;;;;;;5028753;28;20049;-75
2021/12/11 09:44:57;;;;;;;9.40;1.80;;;8.00;99.90;;;;;;5029209;28;20529;-75
2021/12/11 09:47:31;;;;;;;4.43;1.42;;;8.10;99.90;;;;;;5030235;28;20029;-75
2021/12/11 09:50:04;;;;;;;13.80;1.85;;;8.10;99.90;;;;;;5028995;28;20026;-75
2021/12/11 09:52:32;;;;;;;6.13;1.90;;;8.00;99.90;;;;;;5029951;28;20099;-75
2021/12/11 09:55:21;;;;;;;9.50;3.08;;;7.90;99.90;;;;;;5028135;28;20047;-75
2021/12/11 09:57:51;;;;;;;8.73;2.67;;;7.80;99.90;;;;;;5028916;28;20048;-75
2021/12/11 10:00:39;;;;;;;13.67;2.67;;;7.70;99.90;;;;;;5028810;28;20262;-75
2021/12/11 10:03:06;;;;;;;8.68;2.40;;;7.80;99.90;;;;;;5028256;28;20272;-75
2021/12/11 10:05:44;;;;;;;10.43;2.50;;;8.00;99.90;;;;;;5008795;28;20064;-75
2021/12/11 10:08:36;;;;;;;11.57;2.65;;;7.90;99.90;;;;;;5028988;28;20731;-75
2021/12/11 10:11:01;;;;;;;11.80;3.17;;;8.00;99.90;;;;;;5028043;28;20087;-75
2021/12/11 10:13:30;;;;;;;10.50;2.80;;;8.00;99.90;;;;;;5007127;28;20113;-75
2021/12/11 10:15:56;;;;;;;15.55;3.28;;;8.10;99.90;;;;;;5018439;28;20037;-75
2021/12/11 10:18:25;;;;;;;12.13;3.38;;;8.10;99.90;;;;;;5028290;28;20067;-75
2021/12/11 10:21:08;;;;;;;7.68;2.05;;;8.20;99.90;;;;;;5008561;28;20033;-75
2021/12/11 10:23:35;;;;;;;12.75;3.33;;;8.30;99.90;;;;;;5028817;28;20029;-75
2021/12/11 10:26:09;;;;;;;13.88;3.38;;;8.30;99.90;;;;;;5028144;28;20016;-75
2021/12/11 10:28:41;;;;;;;10.02;2.42;;;8.20;99.90;;;;;;5010532;28;20029;-75
2021/12/11 10:31:15;;;;;;;;;;;8.40;99.90;;;;;;5010392;28;20104;-75
2021/12/11 10:33:41;;;;;;;15.05;3.15;;;8.70;99.90;;;;;;5028263;28;19919;-75
2021/12/11 10:36:12;;;;;;;11.63;2.53;;;8.90;99.90;;;;;;5010111;28;20029;-75
2021/12/11 10:38:38;;;;;;;8.98;2.75;;;9.00;99.90;;;;;;5028853;28;20059;-75
2021/12/11 10:41:08;;;;;;;16.60;3.40;;;9.10;99.90;;;;;;5028020;28;20037;-75
2021/12/11 10:43:53;;;;;;;15.55;3.58;;;9.20;99.90;;;;;;5009802;28;20025;-75
2021/12/11 10:46:24;;;;;;;13.95;2.97;;;9.10;99.90;;;;;;5009895;28;20519;-75
2021/12/11 10:48:49;;;;;;;12.30;3.10;;;9.00;99.90;;;;;;5027906;28;20033;-75
2021/12/11 10:51:25;;;;;;;15.00;2.95;;;9.00;99.90;;;;;;5028191;28;20035;-75
2021/12/11 10:53:51;;;;;;;15.60;3.17;;;9.00;99.90;;;;;;5027837;28;20052;-75
2021/12/11 10:56:21;;;;;;;21.10;3.38;;;9.00;99.90;;;;;;5028595;28;20026;-75
2021/12/11 10:58:52;;;;;;;11.25;3.25;;;9.30;99.90;;;;;;5027568;28;20239;-75
2021/12/11 11:01:33;;;;;;;18.35;4.13;;;9.60;99.90;;;;;;5027769;28;20029;-75
2021/12/11 11:04:07;;;;;;;15.38;3.10;;;9.60;99.90;;;;;;5026749;28;20051;-74
2021/12/11 11:06:33;;;;;;;13.15;3.22;;;9.20;99.90;;;;;;5027593;28;20097;-74
2021/12/11 11:08:59;;;;;;;13.48;3.47;;;9.10;99.90;;;;;;5009527;28;20079;-75
2021/12/11 11:11:28;;;;;;;10.68;3.15;;;9.20;99.90;;;;;;5008098;28;20030;-75
2021/12/11 11:13:55;;;;;;;14.65;3.05;;;9.30;99.90;;;;;;5025713;28;20043;-74
2021/12/11 11:16:22;;;;;;;17.15;3.33;;;9.30;99.90;;;;;;5027712;28;20033;-75
2021/12/11 11:18:49;;;;;;;5.93;2.13;;;9.20;99.90;;;;;;5027481;28;20034;-75
2021/12/11 11:21:20;;;;;;;9.05;2.67;;;9.20;99.90;;;;;;5027562;28;20029;-75
2021/12/11 11:23:47;;;;;;;11.38;1.85;;;9.10;99.90;;;;;;5007055;28;20030;-75
2021/12/11 11:26:19;;;;;;;6.30;2.03;;;8.90;99.90;;;;;;5027969;28;20109;-75
2021/12/11 11:28:44;;;;;;;;;;;8.70;99.90;;;;;;5027815;28;20037;-75
2021/12/11 11:31:14;;;;;;;13.52;1.85;;;8.60;99.90;;;;;;5027275;28;20365;-75
2021/12/11 11:33:41;;;;;;;7.13;2.20;;;8.50;99.90;;;;;;5027449;28;20128;-75
2021/12/11 11:36:10;;;;;;;6.05;1.58;;;8.40;99.90;;;;;;5011953;28;20124;-74
2021/12/11 11:38:41;;;;;;;5.18;1.38;;;8.30;99.90;;;;;;5032147;28;20018;-74
2021/12/11 11:41:19;;;;;;;6.05;1.95;;;8.30;99.90;;;;;;5030762;28;20037;-74
2021/12/11 11:43:45;;;;;;;11.73;2.50;;;8.30;99.90;;;;;;5030715;28;20041;-75
2021/12/11 11:46:12;;;;;;;7.70;1.98;;;8.30;99.90;;;;;;5013033;28;20041;-74
2021/12/11 11:48:42;;;;;;;4.30;1.77;;;8.30;99.90;;;;;;5011506;28;20022;-74
2021/12/11 11:51:19;;;;;;;12.43;2.55;;;8.30;99.90;;;;;;5013036;28;20049;-74
2021/12/11 11:53:45;;;;;;;10.57;2.70;;;8.20;99.90;;;;;;5031393;28;20036;-74
2021/12/11 11:56:16;;;;;;;7.20;1.85;;;8.20;99.90;;;;;;5031336;28;20033;-74
2021/12/11 11:58:42;;;;;;;11.48;2.30;;;8.20;99.90;;;;;;5030796;28;20021;-74
2021/12/11 12:01:15;;;;;;;10.77;1.88;;;8.40;99.90;;;;;;5030634;28;20037;-74
2021/12/11 12:03:41;;;;;;;11.50;2.28;;;8.40;99.90;;;;;;5013101;28;20408;-74
2021/12/11 12:06:11;;;;;;;5.65;1.75;;;8.40;99.90;;;;;;5012619;28;20056;-74
2021/12/11 12:08:42;;;;;;;15.10;2.58;;;8.60;99.90;;;;;;5032088;28;20281;-74
2021/12/11 12:11:09;;;;;;;13.18;2.47;;;9.20;99.90;;;;;;5013524;28;20107;-74
2021/12/11 12:13:36;;;;;;;11.13;2.25;;;9.60;99.90;;;;;;5009224;28;20030;-74
2021/12/11 12:16:06;;;;;;;11.02;1.77;;;9.90;99.90;;;;;;5021413;28;20087;-74
2021/12/11 12:18:33;;;;;;;12.55;2.00;;;10.00;99.90;;;;;;5012830;28;20037;-74
2021/12/11 12:21:00;;;;;;;12.15;2.40;;;10.10;99.90;;;;;;5030229;28;20056;-74
2021/12/11 12:23:31;;;;;;;10.05;2.20;;;10.10;99.90;;;;;;5031656;28;20018;-74
2021/12/11 12:26:01;;;;;;;9.57;2.03;;;9.80;99.90;;;;;;5030610;28;20018;-74
2021/12/11 12:28:28;;;;;;;15.35;2.35;;;9.60;99.90;;;;;;5008687;28;20053;-74
2021/12/11 12:31:09;;;;;;;11.07;2.30;;;9.40;99.90;;;;;;5002223;28;20037;-77
2021/12/11 12:33:36;;;;;;;15.25;1.80;;;9.60;99.90;;;;;;5030231;28;20447;-77
2021/12/11 12:36:02;;;;;;;8.93;1.92;;;9.70;99.90;;;;;;5029865;28;20033;-74
2021/12/11 12:38:30;;;;;;;8.32;3.45;;;9.60;99.90;;;;;;5031310;28;20084;-74
2021/12/11 12:41:13;;;;;;;9.65;2.17;;;9.50;99.90;;;;;;5008569;28;20037;-74
2021/12/11 12:46:17;;;;;;;14.68;2.13;;;10.10;99.90;;;;;;5029387;28;20045;-74
2021/12/11 12:48:42;;;;;;;6.55;1.77;;;10.30;99.90;;;;;;5029539;28;20052;-77
2021/12/11 12:51:12;;;;;;;11.20;2.35;;;10.10;99.90;;;;;;5012149;28;20503;-76
2021/12/11 12:53:44;;;;;;;15.20;3.42;;;10.00;99.90;;;;;;5012945;28;20112;-74
2021/12/11 12:56:32;;;;;;;11.70;3.30;;;10.00;99.90;;;;;;5030311;28;20093;-74
2021/12/11 12:59:03;;;;;;;8.77;2.92;;;9.90;99.90;;;;;;5029185;28;20106;-75
2021/12/11 13:01:38;;;;;;;7.90;2.60;;;9.80;99.90;;;;;;5029557;28;20052;-74
2021/12/11 13:04:09;;;;;;;10.80;3.20;;;9.80;99.90;;;;;;5011505;28;20967;-74
2021/12/11 13:06:41;;;;;;;9.23;2.72;;;9.70;99.90;;;;;;5029573;28;20065;-74
2021/12/11 13:09:41;;;;;;;5.18;2.30;;;9.70;99.90;;;;;;5029425;28;20044;-74
2021/12/11 13:12:10;;;;;;;5.93;2.35;;;9.70;99.90;;;;;;5029453;28;20116;-74
2021/12/11 13:14:38;;;;;;;13.05;3.85;;;9.60;99.90;;;;;;5012792;28;20022;-74
2021/12/11 13:17:09;;;;;;;11.75;3.72;;;9.60;99.90;;;;;;5029656;28;20213;-74
2021/12/11 13:19:40;;;;;;;9.35;3.10;;;9.60;99.90;;;;;;5022014;28;20029;-74
2021/12/11 13:22:13;;;;;;;15.82;3.20;;;9.60;99.90;;;;;;5027388;28;20087;-74
2021/12/11 13:24:42;;;;;;;10.35;3.03;;;9.60;99.90;;;;;;5028262;28;20030;-74
2021/12/11 13:27:10;;;;;;;10.18;3.63;;;9.60;99.90;;;;;;5028669;28;20396;-74
2021/12/11 13:29:40;;;;;;;15.07;3.63;;;9.70;99.90;;;;;;5029893;28;20025;-74
2021/12/11 13:32:17;;;;;;;10.10;3.50;;;9.70;99.90;;;;;;5027891;28;20033;-74
2021/12/11 13:34:46;;;;;;;14.35;3.92;;;9.70;99.90;;;;;;5027844;28;20021;-78